Time;durP1;ratioP1;P1;durP2;ratioP2;P2;SDS_P1;SDS_P2;PMS_P1;PMS_P2;Temp;Humidity;BMP_temperature;BMP_pressure;BME280_temperature;BME280_humidity;BME280_pressure;Samples;Min_cycle;Max_cycle;Signal;HPM_P1;HPM_P2
2021/05/17 00:00:09;;;;;;;9.10;4.85;;;;;;;13.60;85.68;98076.19;5137292;27;20640;-93
2021/05/17 00:02:35;;;;;;;9.23;4.90;;;;;;;13.58;85.88;98080.78;5130073;27;20485;-90
2021/05/17 00:05:01;;;;;;;8.30;5.03;;;;;;;13.55;85.22;98090.66;5132448;27;20400;-93
2021/05/17 00:07:27;;;;;;;11.75;4.95;;;;;;;13.57;85.06;98079.88;5131623;27;20101;-90
2021/05/17 00:09:53;;;;;;;8.75;5.07;;;;;;;13.60;85.43;98093.09;5134321;27;20056;-91
2021/05/17 00:12:21;;;;;;;7.47;4.82;;;;;;;13.57;85.96;98090.56;5135803;27;20122;-92
2021/05/17 00:14:46;;;;;;;10.73;5.28;;;;;;;13.47;85.99;98075.97;5129906;27;20047;-92
2021/05/17 00:17:12;;;;;;;8.38;5.10;;;;;;;13.45;85.83;98068.03;5135829;27;20043;-91
2021/05/17 00:19:38;;;;;;;11.00;5.03;;;;;;;13.53;85.67;98083.66;5137842;27;20059;-92
2021/05/17 00:22:05;;;;;;;12.65;5.35;;;;;;;13.52;85.45;98079.25;5135992;27;20531;-92
2021/05/17 00:24:31;;;;;;;13.10;5.30;;;;;;;13.44;85.84;98070.75;5131673;27;20032;-93
2021/05/17 00:26:58;;;;;;;7.60;4.85;;;;;;;13.36;85.00;98073.81;5132575;27;20154;-92
2021/05/17 00:29:25;;;;;;;10.27;5.18;;;;;;;13.46;85.12;98075.06;5133964;27;20040;-92
2021/05/17 00:31:51;;;;;;;8.68;4.85;;;;;;;13.46;83.91;98071.53;5122220;27;20042;-90
2021/05/17 00:34:17;;;;;;;7.63;4.50;;;;;;;13.50;83.63;98065.13;5116419;27;20118;-90
2021/05/17 00:36:44;;;;;;;6.97;4.20;;;;;;;13.54;83.14;98075.56;5121378;27;20135;-91
2021/05/17 00:39:11;;;;;;;10.40;3.80;;;;;;;13.50;83.08;98057.09;5122721;27;20042;-92
2021/05/17 00:41:38;;;;;;;10.52;3.45;;;;;;;13.65;82.25;98077.69;5118915;27;20557;-93
2021/05/17 00:44:04;;;;;;;7.53;3.17;;;;;;;13.63;80.58;98073.38;5116938;27;20039;-93
2021/05/17 00:46:32;;;;;;;8.40;3.80;;;;;;;13.61;79.96;98057.41;5114770;27;20105;-90
2021/05/17 00:48:59;;;;;;;6.78;3.53;;;;;;;13.63;79.53;98047.53;5122568;27;20039;-93
2021/05/17 00:51:25;;;;;;;8.80;3.15;;;;;;;13.74;80.00;98055.00;5119503;27;20046;-92
2021/05/17 00:53:51;;;;;;;9.05;3.40;;;;;;;13.74;80.26;98050.50;5115795;28;20126;-92
2021/05/17 00:56:19;;;;;;;8.40;3.30;;;;;;;13.69;79.75;98046.34;5115420;28;20047;-93
2021/05/17 00:58:46;;;;;;;7.68;3.45;;;;;;;13.67;81.30;98042.91;5115686;27;20050;-92
2021/05/17 01:01:11;;;;;;;6.30;3.40;;;;;;;13.55;81.14;98039.03;5118775;27;20046;-91
2021/05/17 01:03:38;;;;;;;9.68;3.42;;;;;;;13.65;81.43;98058.13;5117076;27;20044;-93
2021/05/17 01:06:04;;;;;;;10.80;3.42;;;;;;;13.66;81.35;98052.72;5111751;28;20040;-92
2021/05/17 01:08:36;;;;;;;7.78;3.47;;;;;;;13.66;81.85;98052.72;5117229;27;20027;-93
2021/05/17 01:11:04;;;;;;;6.00;3.30;;;;;;;13.55;82.33;98047.03;5119754;27;20520;-93
2021/05/17 01:13:31;;;;;;;7.82;3.80;;;;;;;13.52;82.46;98044.53;5115690;27;20396;-92
2021/05/17 01:15:59;;;;;;;11.50;4.43;;;;;;;13.42;82.66;98032.56;5119967;27;20035;-92
2021/05/17 01:18:26;;;;;;;8.05;3.63;;;;;;;13.42;83.56;98019.22;5117702;27;20108;-92
2021/05/17 01:20:54;;;;;;;8.05;3.58;;;;;;;13.40;83.61;98018.44;5119081;27;20087;-92
2021/05/17 01:26:05;;;;;;;7.65;3.70;;;;;;;13.22;85.09;98013.06;5151774;27;20327;-90
2021/05/17 01:28:33;;;;;;;7.82;3.90;;;;;;;13.17;85.19;98011.56;5151834;27;20487;-93
2021/05/17 01:31:00;;;;;;;10.50;4.75;;;;;;;13.14;85.71;98017.91;5148931;27;20027;-91
2021/05/17 01:33:31;;;;;;;6.95;4.63;;;;;;;13.12;85.55;98018.00;5150337;27;20121;-92
2021/05/17 01:35:59;;;;;;;12.63;4.72;;;;;;;13.10;85.58;98011.88;5151678;27;20134;-92
2021/05/17 01:38:26;;;;;;;13.27;5.03;;;;;;;13.09;85.54;97993.25;5151621;27;20130;-92
2021/05/17 01:40:54;;;;;;;10.80;4.40;;;;;;;13.13;85.83;98005.50;5150046;27;20031;-91
2021/05/17 01:43:22;;;;;;;8.20;4.15;;;;;;;13.06;85.79;98002.28;5151589;27;20039;-91
2021/05/17 01:45:49;;;;;;;11.83;5.03;;;;;;;13.21;85.62;98003.31;5150477;27;20031;-91
2021/05/17 01:48:24;;;;;;;10.75;4.43;;;;;;;13.25;85.17;97993.34;5151427;27;20392;-90
2021/05/17 01:50:50;;;;;;;11.77;4.10;;;;;;;13.24;85.40;97996.97;5151561;27;20046;-93
2021/05/17 01:53:17;;;;;;;7.75;4.20;;;;;;;13.25;85.56;97986.22;5151736;27;20035;-93
2021/05/17 01:55:43;;;;;;;9.25;4.40;;;;;;;13.21;85.66;97986.44;5151937;27;20113;-91
2021/05/17 01:58:11;;;;;;;11.73;4.30;;;;;;;13.13;86.02;97987.69;5150310;27;20034;-93
2021/05/17 02:03:35;;;;;;;12.20;5.32;;;;;;;13.08;86.06;98002.22;5089119;27;20874;-92
2021/05/17 02:06:01;;;;;;;8.40;4.60;;;;;;;13.00;86.27;97993.72;5090402;28;20088;-91
2021/05/17 02:08:29;;;;;;;8.93;4.38;;;;;;;13.02;86.19;97998.03;5090246;28;20043;-93
2021/05/17 02:10:56;;;;;;;11.80;4.40;;;;;;;12.95;85.86;97985.94;5090277;28;20036;-93
2021/05/17 02:13:25;;;;;;;12.77;4.63;;;;;;;13.04;85.47;97982.81;5090490;28;20074;-93
2021/05/17 02:15:51;;;;;;;6.40;3.80;;;;;;;12.98;85.68;97979.56;5087266;28;20414;-91
2021/05/17 02:18:17;;;;;;;10.35;4.60;;;;;;;13.07;85.10;97984.44;5089943;28;20097;-92
2021/05/17 02:20:45;;;;;;;8.25;4.40;;;;;;;13.00;84.88;97967.03;5090077;28;20048;-90
2021/05/17 02:23:14;;;;;;;10.07;4.30;;;;;;;12.97;84.49;97960.03;5089831;28;20064;-92
2021/05/17 02:25:43;;;;;;;7.70;3.90;;;;;;;13.08;84.41;97980.84;5090091;28;20547;-92
2021/05/17 02:28:10;;;;;;;8.95;3.88;;;;;;;13.06;84.29;97972.06;5089694;28;20044;-92
2021/05/17 02:30:37;;;;;;;9.48;4.28;;;;;;;13.16;83.92;97983.97;5087835;28;20109;-92
2021/05/17 02:33:03;;;;;;;8.98;4.10;;;;;;;13.19;84.08;97975.84;5089904;28;20064;-92
2021/05/17 02:35:29;;;;;;;8.65;3.75;;;;;;;13.03;84.38;97924.16;5089700;28;20047;-92
2021/05/17 02:37:56;;;;;;;6.65;3.83;;;;;;;13.05;84.32;97954.31;5089629;28;20385;-92
2021/05/17 02:40:23;;;;;;;9.30;4.13;;;;;;;12.92;84.23;97938.03;5088534;28;20071;-91
2021/05/17 02:42:50;;;;;;;10.93;4.07;;;;;;;13.01;84.49;97960.72;5089462;28;20456;-92
2021/05/17 02:45:20;;;;;;;6.60;3.45;;;;;;;12.95;83.74;97957.44;5087468;28;20047;-91
2021/05/17 02:47:46;;;;;;;8.25;3.50;;;;;;;12.92;83.56;97948.72;5089540;28;20425;-92
2021/05/17 02:50:15;;;;;;;7.97;3.78;;;;;;;12.90;83.83;97955.94;5089609;28;20095;-92
2021/05/17 02:52:44;;;;;;;6.70;3.30;;;;;;;12.86;83.83;97971.25;5089288;28;20042;-92
2021/05/17 02:55:13;;;;;;;8.32;3.72;;;;;;;12.79;83.87;97964.47;5088002;28;20089;-92
2021/05/17 02:57:41;;;;;;;8.75;3.75;;;;;;;12.86;83.20;97968.56;5087734;28;20056;-92
2021/05/17 03:00:13;;;;;;;10.00;3.53;;;;;;;12.81;82.25;97945.72;5087298;28;20033;-91
2021/05/17 03:02:52;;;;;;;8.77;3.47;;;;;;;12.97;82.34;97967.16;5088511;28;20090;-92
2021/05/17 03:05:18;;;;;;;6.60;3.40;;;;;;;12.91;81.93;97955.84;5089025;28;20105;-90
2021/05/17 03:07:51;;;;;;;6.63;3.13;;;;;;;13.00;82.31;97972.38;5089096;28;20040;-90
2021/05/17 03:10:19;;;;;;;7.35;3.30;;;;;;;12.98;82.00;97971.56;5087713;28;20037;-93
2021/05/17 03:12:47;;;;;;;8.63;3.40;;;;;;;12.87;82.17;97945.41;5087948;28;20070;-91
2021/05/17 03:15:13;;;;;;;9.20;3.63;;;;;;;12.82;82.45;97937.66;5073684;28;20484;-92
2021/05/17 03:17:40;;;;;;;7.05;3.30;;;;;;;12.94;82.22;97958.34;5075434;28;20059;-92
2021/05/17 03:20:06;;;;;;;8.40;3.60;;;;;;;12.92;82.26;97952.25;5075532;28;20039;-92
2021/05/17 03:22:33;;;;;;;7.18;3.30;;;;;;;13.00;82.14;97967.03;5075217;28;20066;-93
2021/05/17 03:25:01;;;;;;;9.05;3.30;;;;;;;13.01;82.25;97966.06;5074069;28;20029;-91
2021/05/17 03:27:28;;;;;;;9.43;3.85;;;;;;;12.92;82.06;97943.38;5075411;28;20094;-94
2021/05/17 03:29:55;;;;;;;10.18;3.22;;;;;;;13.02;82.18;97962.47;5074219;28;20040;-92
2021/05/17 03:32:22;;;;;;;8.27;3.35;;;;;;;12.91;82.72;97947.00;5073965;28;20126;-90
2021/05/17 03:34:48;;;;;;;8.52;3.35;;;;;;;12.88;82.88;97942.69;5075279;28;20040;-92
2021/05/17 03:37:15;;;;;;;9.48;3.90;;;;;;;12.82;82.56;97940.31;5075299;28;20033;-91
2021/05/17 03:39:43;;;;;;;12.23;3.58;;;;;;;12.83;82.29;97947.38;5075334;28;20051;-92
2021/05/17 03:42:09;;;;;;;8.25;3.75;;;;;;;12.81;82.40;97954.56;5074959;28;20045;-92
2021/05/17 03:44:36;;;;;;;8.43;3.65;;;;;;;12.73;82.85;97944.28;5073892;28;20054;-91
2021/05/17 03:47:02;;;;;;;7.53;3.28;;;;;;;12.80;82.33;97960.88;5073322;28;20040;-92
2021/05/17 03:49:28;;;;;;;5.32;3.15;;;;;;;12.81;82.57;97943.91;5074831;28;20464;-91
2021/05/17 03:51:53;;;;;;;7.40;3.30;;;;;;;12.85;82.26;97953.47;5074858;28;20086;-89
2021/05/17 03:54:19;;;;;;;8.52;3.40;;;;;;;12.97;81.34;97962.72;5074998;28;20048;-91
2021/05/17 03:56:45;;;;;;;10.95;2.92;;;;;;;12.99;81.51;97970.63;5074020;28;20067;-90
2021/05/17 03:59:14;;;;;;;7.10;3.15;;;;;;;13.06;81.72;97956.91;5074843;28;20486;-92
2021/05/17 04:01:41;;;;;;;;;;;;;;;13.25;80.82;97972.88;5073490;28;20461;-92
2021/05/17 04:04:08;;;;;;;8.30;3.10;;;;;;;13.21;80.54;97959.75;5074703;28;19920;-91
2021/05/17 04:15:27;;;;;;;7.43;3.28;;;;;;;13.40;79.77;98000.59;5131011;27;20721;-93
2021/05/17 04:17:52;;;;;;;12.77;4.35;;;;;;;13.43;79.70;97992.44;5131569;27;20047;-93
2021/05/17 04:20:18;;;;;;;7.85;3.33;;;;;;;13.41;80.06;97991.66;5135609;27;20039;-92
2021/05/17 04:22:44;;;;;;;10.05;3.03;;;;;;;13.40;80.21;97994.41;5132635;27;20057;-93
2021/05/17 04:25:11;;;;;;;10.05;3.63;;;;;;;13.42;80.37;97989.84;5131193;27;20096;-91
2021/05/17 04:27:37;;;;;;;7.05;3.45;;;;;;;13.52;80.03;97999.13;5137040;27;20039;-92
2021/05/17 04:30:05;;;;;;;9.75;3.55;;;;;;;13.57;79.89;98005.09;5130369;27;20046;-91
2021/05/17 04:32:31;;;;;;;10.30;3.40;;;;;;;13.51;79.50;97990.25;5134040;27;20134;-92
2021/05/17 04:34:57;;;;;;;8.65;3.13;;;;;;;13.64;79.78;98001.19;5144904;27;20568;-92
2021/05/17 04:37:24;;;;;;;9.98;3.35;;;;;;;13.63;80.13;98010.13;5134953;27;20039;-92
2021/05/17 04:39:52;;;;;;;8.75;3.60;;;;;;;13.59;80.14;97992.50;5131700;27;20032;-91
2021/05/17 04:42:18;;;;;;;10.30;4.28;;;;;;;13.71;80.69;97999.06;5131179;27;20039;-91
2021/05/17 04:44:51;;;;;;;7.47;4.10;;;;;;;13.75;80.70;98004.16;5132448;27;20463;-92
2021/05/17 04:47:20;;;;;;;8.40;4.15;;;;;;;13.77;80.44;98006.75;5134632;27;20039;-91
2021/05/17 04:49:48;;;;;;;10.82;4.13;;;;;;;13.79;79.87;97993.28;5130722;27;20039;-92
2021/05/17 04:52:13;;;;;;;9.30;4.40;;;;;;;13.67;80.20;97979.63;5132556;27;20052;-91
2021/05/17 04:54:39;;;;;;;8.52;4.28;;;;;;;13.66;80.96;97969.91;5133502;27;20035;-93
2021/05/17 04:57:06;;;;;;;7.88;3.88;;;;;;;13.69;80.87;97972.41;5132009;27;20041;-91
2021/05/17 04:59:32;;;;;;;15.40;4.97;;;;;;;13.81;80.31;98002.94;5135828;27;20039;-90
2021/05/17 05:01:58;;;;;;;9.68;4.65;;;;;;;13.71;80.10;97985.69;5131313;27;20039;-93
2021/05/17 05:04:24;;;;;;;9.60;4.38;;;;;;;13.72;80.58;97990.94;5134164;27;20039;-92
2021/05/17 05:06:51;;;;;;;10.48;5.00;;;;;;;13.68;80.73;97970.66;5130314;27;20039;-91
2021/05/17 05:09:16;;;;;;;9.38;4.60;;;;;;;13.88;81.05;97982.09;5129381;27;20078;-92
2021/05/17 05:11:42;;;;;;;8.48;4.00;;;;;;;13.95;80.06;97975.50;5128715;27;20055;-91
2021/05/17 05:14:08;;;;;;;11.25;4.38;;;;;;;13.99;79.51;97969.06;5130222;27;20050;-93
2021/05/17 05:16:34;;;;;;;8.93;4.20;;;;;;;14.11;79.58;97968.38;5130457;27;20042;-93
2021/05/17 05:19:00;;;;;;;7.38;3.53;;;;;;;14.21;79.59;97974.09;5129887;27;20088;-91
2021/05/17 05:21:26;;;;;;;8.32;3.40;;;;;;;14.29;79.41;97971.88;5130763;27;20027;-90
2021/05/17 05:23:52;;;;;;;8.25;3.90;;;;;;;14.31;78.89;97948.59;5134931;27;20035;-92
2021/05/17 05:29:25;;;;;;;11.57;4.78;;;;;;;14.68;77.75;97972.44;5152550;27;20123;-92
2021/05/17 05:34:31;;;;;;;11.18;4.40;;;;;;;14.66;77.87;97975.22;5131467;27;20329;-93
2021/05/17 05:39:55;;;;;;;10.70;4.28;;;;;;;14.55;78.55;97988.31;5136655;27;20373;-93
2021/05/17 05:42:24;;;;;;;13.32;4.75;;;;;;;14.61;78.42;97976.41;5143131;27;20130;-92
2021/05/17 05:44:50;;;;;;;7.97;4.05;;;;;;;14.72;77.51;97984.69;5141787;27;20498;-92
2021/05/17 05:47:17;;;;;;;10.07;3.97;;;;;;;14.61;78.57;97979.94;5146072;27;20043;-91
2021/05/17 05:49:44;;;;;;;10.32;4.32;;;;;;;14.71;78.37;97981.16;5142972;27;20036;-91
2021/05/17 05:52:11;;;;;;;8.52;4.50;;;;;;;14.70;79.21;97979.44;5135658;27;20046;-92
2021/05/17 05:54:37;;;;;;;12.80;4.18;;;;;;;14.63;79.37;97963.81;5134463;27;20067;-92
2021/05/17 05:57:06;;;;;;;8.43;4.10;;;;;;;14.68;79.03;97972.44;5141768;27;20066;-91
2021/05/17 05:59:32;;;;;;;9.75;4.45;;;;;;;14.94;78.25;97990.56;5132644;27;20054;-93
2021/05/17 06:01:58;;;;;;;11.60;4.72;;;;;;;15.07;78.25;98000.53;5136872;27;20031;-93
2021/05/17 06:04:24;;;;;;;8.48;4.13;;;;;;;15.18;78.12;98008.84;5138633;27;20039;-92
2021/05/17 06:06:50;;;;;;;11.52;4.10;;;;;;;15.14;77.40;98004.63;5139513;27;20047;-91
2021/05/17 06:09:16;;;;;;;7.03;3.90;;;;;;;15.31;77.10;97980.41;5131973;27;20046;-92
2021/05/17 06:11:42;;;;;;;9.00;4.07;;;;;;;15.54;76.70;97999.59;5135314;27;20078;-93
2021/05/17 06:14:10;;;;;;;13.45;3.83;;;;;;;15.65;76.08;98001.63;5137027;27;20035;-92
2021/05/17 06:16:37;;;;;;;8.13;4.23;;;;;;;15.76;76.06;98008.09;5142412;27;20031;-93
2021/05/17 06:19:04;;;;;;;12.15;3.90;;;;;;;15.73;76.04;98010.09;5142857;27;20034;-94
2021/05/17 06:21:30;;;;;;;11.60;4.00;;;;;;;15.85;75.67;98013.84;5136595;27;20773;-94
2021/05/17 06:23:57;;;;;;;10.95;4.32;;;;;;;16.05;75.48;98000.09;5140994;27;20028;-93
2021/05/17 06:26:24;;;;;;;12.43;3.85;;;;;;;16.10;75.55;98011.41;5132667;27;20031;-92
2021/05/17 06:28:50;;;;;;;10.85;4.20;;;;;;;16.20;75.00;98014.41;5133004;27;20061;-93
2021/05/17 06:31:18;;;;;;;15.30;5.10;;;;;;;16.22;74.89;97980.25;5137359;27;20066;-93
2021/05/17 06:33:47;;;;;;;9.88;4.18;;;;;;;16.58;73.91;98005.75;5131384;27;20517;-92
2021/05/17 06:36:15;;;;;;;11.20;5.28;;;;;;;16.50;74.03;97995.47;5132367;27;20122;-93
2021/05/17 06:38:42;;;;;;;10.88;3.65;;;;;;;16.92;72.44;97996.41;5141928;27;20043;-92
2021/05/17 06:41:08;;;;;;;12.80;3.92;;;;;;;16.86;72.42;98004.84;5136889;27;20031;-95
2021/05/17 06:43:35;;;;;;;10.10;3.65;;;;;;;16.90;71.91;97995.66;5134755;27;20050;-93
2021/05/17 06:46:02;;;;;;;8.02;3.75;;;;;;;17.03;71.18;98012.69;5133454;27;20043;-93
2021/05/17 06:48:29;;;;;;;11.70;3.92;;;;;;;17.03;71.47;98001.94;5133348;27;20044;-94
2021/05/17 06:50:55;;;;;;;9.93;3.90;;;;;;;17.17;71.25;98008.22;5121631;28;20044;-93
2021/05/17 06:53:22;;;;;;;9.52;4.38;;;;;;;17.21;71.22;98028.56;5122652;27;20046;-92
2021/05/17 07:01:49;;;;;;;12.30;3.88;;;;;;;17.41;70.45;98014.66;5113362;27;20341;-94
2021/05/17 07:04:20;;;;;;;7.65;3.88;;;;;;;17.57;69.95;98024.38;5114358;28;20043;-94
2021/05/17 07:06:54;;;;;;;8.38;4.15;;;;;;;17.89;69.75;98016.84;5112172;28;20067;-93
2021/05/17 07:12:18;;;;;;;9.63;4.28;;;;;;;18.41;67.92;98033.84;5114586;27;20345;-95
2021/05/17 07:14:45;;;;;;;12.63;4.20;;;;;;;18.51;67.36;98036.75;5114232;28;20105;-95
2021/05/17 07:17:11;;;;;;;11.38;3.53;;;;;;;18.70;66.71;98028.22;5103702;28;20044;-93
2021/05/17 07:19:37;;;;;;;9.10;3.67;;;;;;;18.77;66.32;98008.81;5097201;28;20043;-92
2021/05/17 07:25:04;;;;;;;7.85;3.45;;;;;;;19.75;64.42;98018.69;5114414;27;20333;-94
2021/05/17 07:27:30;;;;;;;8.97;3.53;;;;;;;18.85;65.84;98002.91;5114510;28;20040;-94
2021/05/17 07:29:56;;;;;;;9.88;3.95;;;;;;;18.11;68.14;97989.31;5113706;28;20376;-94
2021/05/17 07:32:22;;;;;;;11.48;3.72;;;;;;;18.80;67.17;98000.56;5114721;28;20048;-94
2021/05/17 07:34:48;;;;;;;11.23;4.40;;;;;;;18.75;66.27;97980.28;5112704;28;20032;-92
2021/05/17 07:37:15;;;;;;;8.10;3.50;;;;;;;18.52;67.68;97963.09;5112130;28;20078;-96
2021/05/17 07:39:41;;;;;;;8.40;3.80;;;;;;;17.88;68.33;97947.00;5112278;28;20119;-94
2021/05/17 07:42:09;;;;;;;8.80;4.07;;;;;;;17.66;70.51;97983.44;5111403;28;20047;-93
2021/05/17 07:44:39;;;;;;;8.55;4.22;;;;;;;17.01;71.99;98011.91;5110745;28;20071;-95
2021/05/17 07:47:05;;;;;;;9.73;4.10;;;;;;;16.71;73.28;98046.94;5112060;28;20040;-93
2021/05/17 07:52:33;;;;;;;6.75;3.10;;;;;;;16.58;68.68;98043.31;5138240;27;20357;-93
2021/05/17 07:54:59;;;;;;;7.15;2.20;;;;;;;16.42;66.71;98017.44;5122729;28;20051;-93
2021/05/17 07:57:25;;;;;;;8.13;2.35;;;;;;;16.59;66.52;98016.38;5120231;28;20035;-93
2021/05/17 07:59:53;;;;;;;4.50;2.10;;;;;;;16.51;67.11;98015.16;5125210;28;20442;-92
2021/05/17 08:05:20;;;;;;;7.43;2.60;;;;;;;17.28;65.45;98032.53;5107154;27;20350;-93
2021/05/17 08:07:45;;;;;;;6.30;2.53;;;;;;;18.09;63.13;98034.28;5069649;28;20500;-93
2021/05/17 08:10:13;;;;;;;6.78;2.30;;;;;;;17.78;64.12;98032.81;5071814;28;20059;-93
2021/05/17 08:12:39;;;;;;;7.22;2.60;;;;;;;17.35;64.66;98031.19;5069020;28;20033;-92
2021/05/17 08:15:06;;;;;;;7.82;2.63;;;;;;;17.71;62.97;98016.22;5069821;28;20043;-93
2021/05/17 08:17:33;;;;;;;5.95;2.33;;;;;;;18.03;62.99;98010.50;5072574;28;20028;-93
2021/05/17 08:19:59;;;;;;;8.38;2.60;;;;;;;17.37;64.48;98005.09;5070731;28;20064;-93
2021/05/17 08:22:26;;;;;;;8.70;2.40;;;;;;;17.45;64.12;97993.81;5071246;28;20043;-93
2021/05/17 08:24:54;;;;;;;8.70;2.83;;;;;;;17.85;63.95;97994.66;5071199;28;20032;-93
2021/05/17 08:27:23;;;;;;;5.47;2.20;;;;;;;18.48;60.35;97984.00;5069663;28;20106;-92
2021/05/17 08:29:49;;;;;;;6.60;2.63;;;;;;;18.92;59.56;98019.47;5070104;28;20102;-92
2021/05/17 08:32:15;;;;;;;5.82;2.30;;;;;;;18.34;60.17;97989.50;5069517;28;20045;-92
2021/05/17 08:34:41;;;;;;;7.72;2.40;;;;;;;18.60;59.03;98018.09;5072023;28;20119;-93
2021/05/17 08:37:07;;;;;;;6.65;2.33;;;;;;;18.69;58.66;98013.88;5071034;28;20040;-92
2021/05/17 08:39:36;;;;;;;8.82;2.40;;;;;;;18.94;57.44;98009.47;5071567;28;20041;-93
2021/05/17 08:42:03;;;;;;;10.93;2.55;;;;;;;19.60;55.98;98002.66;5071898;28;20048;-90
2021/05/17 08:44:30;;;;;;;7.45;2.13;;;;;;;19.13;57.19;98023.28;5072563;28;20482;-95
2021/05/17 08:46:56;;;;;;;10.18;2.28;;;;;;;18.78;57.39;97990.84;5073656;28;20048;-93
2021/05/17 08:49:22;;;;;;;6.25;1.92;;;;;;;18.54;59.42;98007.78;5073197;28;20041;-95
2021/05/17 08:51:50;;;;;;;8.88;2.55;;;;;;;18.10;59.33;98021.69;5073434;28;20055;-94
2021/05/17 08:54:16;;;;;;;6.00;2.00;;;;;;;18.55;57.32;97993.34;5073699;28;20036;-95
2021/05/17 08:56:46;;;;;;;7.03;2.22;;;;;;;18.89;58.38;98017.88;5073389;28;20067;-95
2021/05/17 08:59:15;;;;;;;7.03;2.20;;;;;;;18.14;57.84;98026.75;5073291;28;20049;-94
2021/05/17 09:01:41;;;;;;;;;;;;;;;18.05;60.38;98036.31;5072253;28;20048;-93
2021/05/17 09:04:10;;;;;;;6.45;2.83;;;;;;;18.75;57.65;98004.50;5070890;28;19974;-95
2021/05/17 09:06:39;;;;;;;6.78;2.03;;;;;;;19.15;56.83;98015.06;5071421;28;20091;-95
2021/05/17 09:09:08;;;;;;;7.60;2.20;;;;;;;19.58;55.67;98011.84;5072144;28;20045;-94
2021/05/17 09:11:34;;;;;;;8.02;2.20;;;;;;;19.25;55.08;98006.19;5072541;28;20394;-93
2021/05/17 09:14:11;;;;;;;8.05;2.20;;;;;;;20.06;53.45;98014.47;5073579;28;20064;-96
2021/05/17 09:16:45;;;;;;;11.52;2.40;;;;;;;19.64;52.99;98030.28;5064926;28;20033;-96
2021/05/17 09:19:12;;;;;;;5.20;2.30;;;;;;;18.95;53.92;98044.34;5080855;28;20047;-94
2021/05/17 09:22:00;;;;;;;9.50;2.50;;;;;;;19.12;56.06;98028.78;5080140;28;20112;-96
2021/05/17 09:24:41;;;;;;;7.97;2.30;;;;;;;19.98;52.74;98041.22;5058911;28;20111;-91
2021/05/17 09:27:09;;;;;;;7.80;2.53;;;;;;;20.03;52.68;98044.41;5059990;28;20041;-95
2021/05/17 09:29:37;;;;;;;6.30;2.42;;;;;;;19.87;52.16;98045.59;5059113;28;20045;-95
2021/05/17 09:32:18;;;;;;;10.32;2.53;;;;;;;20.28;53.60;98049.63;5056978;28;20128;-93
2021/05/17 09:34:46;;;;;;;7.72;2.13;;;;;;;19.89;52.39;98080.56;5054219;28;20036;-94
2021/05/17 09:37:12;;;;;;;8.82;2.10;;;;;;;19.58;53.38;98033.44;5058028;28;20401;-96
2021/05/17 09:39:48;;;;;;;8.77;2.10;;;;;;;19.27;52.58;98036.59;5058245;28;20049;-94
2021/05/17 09:42:13;;;;;;;7.85;2.30;;;;;;;19.90;52.16;98044.50;5057705;28;20094;-95
2021/05/17 09:44:45;;;;;;;7.38;2.03;;;;;;;19.86;50.39;98046.59;5059006;28;20053;-96
2021/05/17 09:50:11;;;;;;;7.13;2.33;;;;;;;20.33;49.27;98045.72;5113148;27;20708;-94
2021/05/17 09:52:37;;;;;;;6.65;2.50;;;;;;;20.38;47.68;98071.34;5113661;28;20040;-94
2021/05/17 09:55:06;;;;;;;7.90;2.40;;;;;;;19.92;48.25;98053.34;5113429;28;20039;-94
2021/05/17 09:57:38;;;;;;;6.38;2.22;;;;;;;20.08;49.81;98044.91;5114814;28;20057;-93
2021/05/17 10:00:08;;;;;;;6.35;2.30;;;;;;;19.71;48.90;98063.91;5114522;28;20040;-93
2021/05/17 10:02:39;;;;;;;7.85;2.50;;;;;;;19.47;48.70;98085.47;5113283;28;20070;-93
2021/05/17 10:05:22;;;;;;;7.10;2.20;;;;;;;19.32;50.41;98048.88;5113590;28;20122;-94
2021/05/17 10:07:49;;;;;;;8.75;2.28;;;;;;;18.79;50.45;98057.22;5113556;28;20070;-95
2021/05/17 10:10:17;;;;;;;5.70;2.20;;;;;;;19.01;50.32;98068.16;5113695;28;20443;-93
2021/05/17 10:12:43;;;;;;;6.30;2.30;;;;;;;19.26;48.89;98052.91;5113164;28;20465;-95
2021/05/17 10:15:14;;;;;;;7.68;2.45;;;;;;;18.57;50.38;98042.56;5114539;28;20052;-94
2021/05/17 10:17:41;;;;;;;5.90;1.83;;;;;;;18.47;51.16;98063.88;5113752;28;20051;-95
2021/05/17 10:20:10;;;;;;;5.78;1.90;;;;;;;19.09;48.21;98056.81;5114616;28;20043;-94
2021/05/17 10:22:37;;;;;;;5.97;2.10;;;;;;;19.82;47.58;98074.78;5108344;28;20052;-94
2021/05/17 10:25:05;;;;;;;7.38;2.05;;;;;;;20.10;46.99;98080.75;5114708;28;20276;-93
2021/05/17 10:27:38;;;;;;;8.38;1.98;;;;;;;20.11;48.32;98066.28;5113528;28;20119;-96
2021/05/17 10:30:07;;;;;;;6.95;1.90;;;;;;;19.96;47.31;98037.78;5113662;28;20036;-94
2021/05/17 10:32:45;;;;;;;8.27;1.88;;;;;;;19.68;45.31;98072.22;5118311;28;20041;-94
2021/05/17 10:35:16;;;;;;;7.63;1.90;;;;;;;20.10;45.13;98043.84;5116822;28;20043;-96
2021/05/17 10:37:48;;;;;;;6.20;2.30;;;;;;;19.92;45.39;98056.03;5117186;28;20100;-94
2021/05/17 10:40:42;;;;;;;6.90;2.00;;;;;;;19.75;44.77;98062.72;5117147;28;20127;-96
2021/05/17 10:49:26;;;;;;;5.38;2.03;;;;;;;20.28;41.98;98079.34;5139570;27;20333;-95
2021/05/17 10:51:54;;;;;;;9.00;1.98;;;;;;;20.25;41.15;98071.44;5118215;28;20044;-94
2021/05/17 10:54:36;;;;;;;7.20;2.20;;;;;;;19.82;42.80;98111.66;5120879;28;20114;-94
2021/05/17 10:57:15;;;;;;;5.20;1.85;;;;;;;19.86;42.04;98089.75;5119451;28;20040;-95
2021/05/17 11:02:43;;;;;;;6.93;2.22;;;;;;;19.89;40.02;98081.41;5143648;27;20372;-95
2021/05/17 11:05:18;;;;;;;4.63;1.63;;;;;;;20.45;41.69;98075.31;5145496;27;20050;-95
2021/05/17 11:07:48;;;;;;;6.22;1.80;;;;;;;20.49;38.95;98073.22;5142055;27;20496;-96
2021/05/17 11:10:17;;;;;;;5.95;2.05;;;;;;;20.60;40.55;98112.91;5140488;27;20407;-93
2021/05/17 11:12:55;;;;;;;6.70;1.90;;;;;;;20.61;39.03;98098.44;5132658;28;20051;-95
2021/05/17 11:15:22;;;;;;;5.55;2.10;;;;;;;20.59;40.11;98092.31;5141500;27;20085;-95
2021/05/17 11:18:19;;;;;;;7.47;2.25;;;;;;;20.58;41.26;98080.66;5140816;27;20050;-94
2021/05/17 11:20:53;;;;;;;6.35;2.28;;;;;;;20.34;39.87;98069.03;5143860;27;20032;-95
2021/05/17 11:23:41;;;;;;;9.20;2.00;;;;;;;20.62;40.32;98073.13;5140491;27;20152;-95
2021/05/17 11:29:13;;;;;;;6.70;2.10;;;;;;;21.04;40.01;98079.66;5138054;27;20352;-95
2021/05/17 11:35:01;;;;;;;4.68;1.88;;;;;;;20.64;38.00;98076.59;5077264;27;20391;-93
2021/05/17 11:37:27;;;;;;;5.03;1.90;;;;;;;20.99;37.18;98091.81;5076931;28;20055;-93
2021/05/17 11:39:53;;;;;;;8.68;1.88;;;;;;;21.01;37.00;98058.25;5075776;28;20120;-95
2021/05/17 11:42:22;;;;;;;4.30;1.70;;;;;;;21.12;34.44;98090.72;5076685;28;20053;-94
2021/05/17 11:47:45;;;;;;;4.53;1.80;;;;;;;21.44;35.78;98081.81;5136698;27;20821;-96
2021/05/17 11:50:11;;;;;;;5.57;1.80;;;;;;;21.39;34.70;98065.09;5135327;28;20070;-94
2021/05/17 11:52:38;;;;;;;4.95;1.90;;;;;;;21.25;32.87;98052.72;5137339;28;20107;-96
2021/05/17 11:55:07;;;;;;;5.57;2.35;;;;;;;21.15;31.52;98089.59;5137775;28;20141;-94
2021/05/17 11:57:35;;;;;;;5.43;1.60;;;;;;;20.94;26.93;98084.09;5136900;28;20104;-95
2021/05/17 12:00:04;;;;;;;7.68;1.83;;;;;;;20.67;26.35;98066.41;5137855;28;20040;-95
2021/05/17 12:02:30;;;;;;;4.68;1.90;;;;;;;20.85;27.61;98092.94;5136295;28;20508;-95
2021/05/17 12:04:57;;;;;;;6.07;1.60;;;;;;;20.96;27.47;98071.31;5135784;28;20047;-95
2021/05/17 12:07:25;;;;;;;5.28;1.80;;;;;;;21.38;28.66;98071.47;5134894;28;20035;-94
2021/05/17 12:09:52;;;;;;;6.23;1.67;;;;;;;21.30;29.27;98072.13;5137076;28;20092;-94
2021/05/17 12:12:21;;;;;;;4.38;1.55;;;;;;;21.20;28.59;98078.41;5136039;28;20043;-95
2021/05/17 12:14:54;;;;;;;6.57;1.60;;;;;;;21.25;25.48;98081.59;5137620;28;20043;-96
2021/05/17 12:17:24;;;;;;;4.75;1.60;;;;;;;21.42;25.77;98072.13;5137624;28;20122;-94
2021/05/17 12:19:52;;;;;;;7.57;1.80;;;;;;;21.29;25.97;98066.84;5137005;28;20043;-95
2021/05/17 12:22:23;;;;;;;7.32;1.55;;;;;;;21.73;26.08;98079.41;5135969;28;20130;-95
2021/05/17 12:24:49;;;;;;;6.95;1.60;;;;;;;21.94;24.52;98084.00;5137961;28;20040;-95
2021/05/17 12:27:18;;;;;;;3.05;1.35;;;;;;;21.51;24.32;98074.94;5137661;28;20071;-95
2021/05/17 12:29:53;;;;;;;3.95;1.60;;;;;;;21.64;24.84;98082.03;5138883;28;20107;-95
2021/05/17 12:32:21;;;;;;;4.60;1.50;;;;;;;21.32;25.18;98077.41;5137239;28;20061;-95
2021/05/17 12:35:08;;;;;;;6.75;1.55;;;;;;;21.20;26.47;98083.81;5136379;28;20082;-95
2021/05/17 12:37:40;;;;;;;4.68;1.60;;;;;;;20.77;25.72;98085.44;5124926;28;20096;-94